Time;durP1;ratioP1;P1;durP2;ratioP2;P2;SDS_P1;SDS_P2;PMS_P1;PMS_P2;Temp;Humidity;BMP_temperature;BMP_pressure;BME280_temperature;BME280_humidity;BME280_pressure;Samples;Min_cycle;Max_cycle;Signal;HPM_P1;HPM_P2
2022/08/01 00:02:45;;;;;;;1.88;1.30;;;24.70;69.00;;;;;;5053807;28;20047;-77
2022/08/01 00:05:49;;;;;;;3.17;1.33;;;24.60;69.50;;;;;;5053000;28;20061;-77
2022/08/01 00:13:12;;;;;;;4.32;2.00;;;24.50;69.80;;;;;;5052586;28;20120;-75
2022/08/01 00:19:38;;;;;;;2.03;1.40;;;24.40;70.00;;;;;;5052865;28;20052;-78
2022/08/01 00:22:42;;;;;;;3.22;1.67;;;24.40;71.70;;;;;;5052904;28;20048;-78
2022/08/01 00:25:46;;;;;;;1.98;1.60;;;24.40;71.70;;;;;;5052639;28;20044;-78
2022/08/01 00:32:50;;;;;;;5.53;1.80;;;24.10;71.50;;;;;;5052745;28;20051;-77
2022/08/01 00:36:15;;;;;;;2.58;1.60;;;23.90;72.00;;;;;;5053086;28;20075;-77
2022/08/01 00:39:19;;;;;;;2.67;1.77;;;23.80;72.00;;;;;;5053230;28;20052;-77
2022/08/01 00:42:23;;;;;;;3.10;1.65;;;23.80;72.50;;;;;;5052752;28;20423;-77
2022/08/01 00:45:27;;;;;;;2.83;2.08;;;23.80;73.10;;;;;;5052246;28;20051;-77
2022/08/01 00:48:32;;;;;;;2.08;1.70;;;23.80;73.10;;;;;;5052433;28;20048;-77
2022/08/01 00:58:40;;;;;;;2.45;1.50;;;23.50;73.70;;;;;;5052344;28;20120;-77
2022/08/01 01:01:44;;;;;;;2.65;1.33;;;23.50;73.30;;;;;;5051832;28;20048;-77
2022/08/01 01:04:48;;;;;;;1.48;1.35;;;23.50;72.90;;;;;;5051640;28;20624;-77
2022/08/01 01:08:07;;;;;;;2.15;1.77;;;23.50;72.90;;;;;;5050720;28;20423;-77
2022/08/01 01:11:25;;;;;;;2.05;1.50;;;23.50;73.50;;;;;;5051810;28;20379;-77
2022/08/01 01:14:53;;;;;;;2.45;1.20;;;23.40;73.20;;;;;;5051753;28;20048;-77
2022/08/01 01:18:05;;;;;;;1.85;1.60;;;23.40;72.90;;;;;;5052263;28;20055;-77
2022/08/01 01:25:07;;;;;;;4.95;1.67;;;23.40;73.20;;;;;;5051582;28;20044;-78
2022/08/01 01:28:41;;;;;;;2.58;1.73;;;23.20;74.40;;;;;;5051632;28;20067;-78
2022/08/01 01:31:56;;;;;;;2.35;1.60;;;23.20;75.10;;;;;;5051664;28;20040;-77
2022/08/01 01:39:06;;;;;;;6.47;2.60;;;23.00;75.60;;;;;;5051360;28;20040;-77
2022/08/01 01:42:31;;;;;;;3.97;1.80;;;23.00;75.60;;;;;;5051709;28;20052;-77
2022/08/01 01:45:36;;;;;;;2.80;1.45;;;22.80;76.40;;;;;;5051079;28;20048;-77
2022/08/01 01:49:00;;;;;;;2.55;1.67;;;22.80;75.50;;;;;;5051554;28;20040;-78
2022/08/01 01:52:04;;;;;;;2.22;1.70;;;22.80;75.90;;;;;;5051302;28;20048;-77
2022/08/01 01:55:28;;;;;;;2.75;1.63;;;22.70;75.80;;;;;;5050064;28;20040;-77
2022/08/01 01:58:53;;;;;;;2.58;1.65;;;22.60;76.40;;;;;;5050573;28;20039;-77
2022/08/01 02:02:01;;;;;;;2.50;1.90;;;22.60;76.60;;;;;;5051386;28;20064;-78
2022/08/01 02:05:08;;;;;;;1.88;1.60;;;22.50;77.10;;;;;;5050821;28;20051;-77
2022/08/01 02:08:49;;;;;;;2.08;1.60;;;22.40;77.00;;;;;;5050958;28;20064;-77
2022/08/01 02:11:54;;;;;;;4.07;1.45;;;22.30;77.20;;;;;;5050875;28;20036;-77
2022/08/01 02:19:00;;;;;;;1.70;1.50;;;22.20;77.80;;;;;;5051091;28;20052;-77
2022/08/01 02:22:09;;;;;;;2.42;1.70;;;22.20;78.10;;;;;;5050819;28;20044;-77
2022/08/01 02:25:36;;;;;;;4.00;1.88;;;22.20;78.10;;;;;;5050253;28;20044;-77
2022/08/01 02:28:54;;;;;;;2.20;1.60;;;22.20;78.20;;;;;;5050726;28;20044;-77
2022/08/01 02:32:00;;;;;;;3.72;1.77;;;22.10;78.10;;;;;;5050620;28;20506;-77
2022/08/01 02:35:43;;;;;;;2.47;2.10;;;22.10;78.50;;;;;;5050327;28;20068;-77
2022/08/01 02:38:47;;;;;;;2.55;1.60;;;22.10;79.60;;;;;;5050480;28;20060;-77
2022/08/01 02:42:12;;;;;;;1.85;1.65;;;22.10;79.40;;;;;;5050308;28;20115;-77
2022/08/01 02:45:20;;;;;;;1.70;1.60;;;22.20;78.70;;;;;;5049825;28;20047;-77
2022/08/01 02:48:26;;;;;;;3.95;1.63;;;22.10;79.10;;;;;;5050225;28;20518;-77
2022/08/01 02:51:32;;;;;;;4.15;2.03;;;22.10;78.50;;;;;;5049830;28;20154;-77
2022/08/01 02:54:37;;;;;;;4.38;1.90;;;22.00;79.60;;;;;;5050150;28;20494;-77
2022/08/01 02:58:00;;;;;;;3.25;2.17;;;22.00;80.20;;;;;;5050264;28;20060;-77
2022/08/01 03:01:06;;;;;;;4.28;1.92;;;22.00;80.70;;;;;;5050137;28;20068;-77
2022/08/01 03:04:30;;;;;;;3.40;2.30;;;21.90;81.50;;;;;;5049709;28;20052;-78
2022/08/01 03:07:35;;;;;;;4.97;2.20;;;22.00;82.30;;;;;;5049058;28;20044;-77
2022/08/01 03:10:42;;;;;;;2.45;1.90;;;21.90;82.30;;;;;;5050245;28;20067;-77
2022/08/01 03:17:11;;;;;;;3.70;2.50;;;21.90;80.70;;;;;;5057107;28;20052;-77
2022/08/01 03:20:18;;;;;;;4.57;2.53;;;21.80;83.00;;;;;;5057141;28;20048;-77
2022/08/01 03:23:23;;;;;;;3.90;2.35;;;21.80;81.30;;;;;;5056368;28;20391;-77
2022/08/01 03:30:11;;;;;;;4.32;2.53;;;21.80;83.20;;;;;;5056446;28;20059;-77
2022/08/01 03:33:15;;;;;;;7.10;2.10;;;21.80;83.40;;;;;;5056134;28;20036;-77
2022/08/01 03:36:25;;;;;;;5.80;2.33;;;21.70;84.40;;;;;;5056715;28;20056;-77
2022/08/01 03:39:50;;;;;;;3.10;1.73;;;21.70;83.50;;;;;;5056550;28;20052;-77
2022/08/01 03:43:31;;;;;;;3.65;2.28;;;21.60;83.70;;;;;;5056135;28;20052;-77
2022/08/01 03:46:41;;;;;;;2.75;2.28;;;21.50;84.10;;;;;;5056262;28;20040;-77
2022/08/01 03:50:09;;;;;;;3.55;2.40;;;21.30;85.00;;;;;;5055965;28;20586;-77
2022/08/01 03:56:38;;;;;;;4.72;2.20;;;21.20;87.30;;;;;;5056669;28;20048;-77
2022/08/01 04:00:19;;;;;;;4.32;2.25;;;21.10;87.60;;;;;;5056178;28;20610;-77
2022/08/01 04:03:24;;;;;;;2.72;2.00;;;21.10;87.60;;;;;;5055859;28;20047;-78
2022/08/01 04:06:29;;;;;;;3.35;2.22;;;21.10;88.20;;;;;;5056364;28;20044;-77
2022/08/01 04:09:33;;;;;;;7.32;2.20;;;21.10;88.50;;;;;;5055724;28;20391;-77
2022/08/01 04:12:56;;;;;;;7.55;2.38;;;21.10;89.80;;;;;;5055971;28;20049;-77
2022/08/01 04:16:00;;;;;;;3.30;2.65;;;21.10;89.70;;;;;;5056521;28;20498;-77
2022/08/01 04:19:07;;;;;;;3.22;2.20;;;21.10;90.40;;;;;;5054631;28;20052;-77
2022/08/01 04:22:13;;;;;;;5.88;2.45;;;21.20;90.60;;;;;;5055974;28;20052;-77
2022/08/01 04:25:24;;;;;;;5.95;2.55;;;21.20;90.90;;;;;;5051693;28;20044;-77
2022/08/01 04:28:30;;;;;;;8.10;2.38;;;21.20;90.80;;;;;;5052940;28;20036;-77
2022/08/01 04:35:00;;;;;;;3.97;2.42;;;21.30;90.70;;;;;;5052370;28;20048;-77
2022/08/01 04:41:50;;;;;;;7.47;2.30;;;21.30;91.10;;;;;;5052874;28;20044;-77
2022/08/01 04:44:53;;;;;;;8.65;2.88;;;21.40;91.20;;;;;;5052287;28;20052;-77
2022/08/01 04:47:58;;;;;;;6.32;2.58;;;21.40;91.20;;;;;;5052827;28;20435;-77
2022/08/01 04:51:01;;;;;;;4.05;2.13;;;21.40;91.10;;;;;;5052756;28;20036;-77
2022/08/01 04:54:25;;;;;;;4.47;1.92;;;21.50;91.10;;;;;;5051985;28;20044;-77
2022/08/01 04:57:30;;;;;;;4.38;2.20;;;21.60;91.00;;;;;;5052832;28;20048;-77
2022/08/01 05:00:34;;;;;;;4.40;2.30;;;22.60;90.70;;;;;;5052261;28;20064;-78
2022/08/01 05:03:39;;;;;;;7.70;2.70;;;25.10;85.50;;;;;;5052006;28;20044;-77
2022/08/01 05:06:43;;;;;;;7.63;2.53;;;27.30;82.00;;;;;;5052398;28;20044;-78
2022/08/01 05:10:06;;;;;;;5.68;2.20;;;29.20;76.90;;;;;;5053172;28;20040;-77
2022/08/01 05:16:32;;;;;;;4.93;2.03;;;31.50;71.90;;;;;;5052573;28;20044;-76
2022/08/01 05:19:37;;;;;;;6.65;2.70;;;32.20;70.50;;;;;;5052826;28;20043;-78
2022/08/01 05:23:00;;;;;;;3.63;2.30;;;32.80;69.60;;;;;;5052555;28;20051;-78
2022/08/01 05:26:23;;;;;;;6.97;2.35;;;33.40;68.40;;;;;;5051823;28;20040;-78
2022/08/01 05:29:27;;;;;;;4.20;1.65;;;34.30;67.50;;;;;;5052052;28;20044;-76
2022/08/01 05:32:50;;;;;;;4.40;1.90;;;34.80;66.40;;;;;;5051881;28;20040;-78
2022/08/01 05:35:54;;;;;;;4.85;1.83;;;34.90;65.80;;;;;;5051455;28;20067;-76
2022/08/01 05:38:58;;;;;;;3.85;1.73;;;35.00;65.70;;;;;;5051905;28;20392;-78
2022/08/01 05:42:02;;;;;;;3.83;1.75;;;34.80;65.30;;;;;;5051613;28;20058;-78
2022/08/01 05:45:25;;;;;;;4.75;1.80;;;34.90;65.30;;;;;;5050949;28;20040;-75
2022/08/01 05:48:29;;;;;;;1.98;1.63;;;35.20;64.80;;;;;;5051359;28;20097;-77
2022/08/01 05:51:33;;;;;;;12.05;3.92;;;35.60;64.30;;;;;;5050261;28;20044;-76
2022/08/01 05:54:38;;;;;;;4.03;1.65;;;36.10;63.70;;;;;;5051261;28;20056;-77
2022/08/01 05:57:42;;;;;;;6.88;1.90;;;34.30;63.90;;;;;;5051949;28;20055;-77
2022/08/01 06:00:46;;;;;;;4.40;1.85;;;33.80;64.60;;;;;;5051741;28;20052;-76
2022/08/01 06:03:50;;;;;;;2.35;1.80;;;32.30;65.90;;;;;;5051215;28;20048;-76
2022/08/01 06:07:14;;;;;;;6.28;2.03;;;31.50;66.90;;;;;;5068769;28;20039;-76
2022/08/01 06:10:37;;;;;;;5.28;1.67;;;32.00;67.00;;;;;;5058350;28;20043;-76
2022/08/01 06:13:59;;;;;;;3.17;1.83;;;32.10;66.60;;;;;;5069877;28;20035;-77
2022/08/01 06:17:03;;;;;;;3.67;1.70;;;32.40;66.10;;;;;;5071069;28;20123;-77
2022/08/01 06:20:08;;;;;;;3.78;1.70;;;32.10;66.30;;;;;;5070380;28;20055;-77
2022/08/01 06:23:31;;;;;;;5.70;1.83;;;32.10;66.10;;;;;;5060168;28;20043;-76
2022/08/01 06:29:59;;;;;;;2.22;1.60;;;32.90;65.10;;;;;;5070035;28;20035;-76
2022/08/01 06:33:04;;;;;;;4.97;1.85;;;31.90;65.70;;;;;;5063522;28;20372;-76
2022/08/01 06:39:30;;;;;;;4.90;1.60;;;31.30;66.30;;;;;;5071415;28;20047;-77
2022/08/01 06:42:37;;;;;;;3.72;1.60;;;31.20;66.70;;;;;;5058895;28;20056;-76
2022/08/01 06:46:00;;;;;;;4.22;1.73;;;31.40;66.70;;;;;;5051463;28;20056;-78
2022/08/01 06:49:04;;;;;;;2.17;1.70;;;32.80;65.80;;;;;;5068287;28;20047;-78
2022/08/01 06:52:08;;;;;;;2.63;1.35;;;33.40;65.00;;;;;;5058165;28;20051;-77
2022/08/01 06:55:12;;;;;;;3.83;1.33;;;34.20;64.20;;;;;;5069157;28;20052;-78
2022/08/01 06:58:35;;;;;;;1.75;1.50;;;34.20;63.60;;;;;;5050305;28;20498;-78
2022/08/01 07:01:39;;;;;;;2.40;1.42;;;34.70;63.50;;;;;;5067059;28;20048;-75
2022/08/01 07:04:43;;;;;;;3.00;1.60;;;34.30;63.30;;;;;;5068643;28;20040;-79
2022/08/01 07:08:05;;;;;;;2.22;1.60;;;34.00;63.60;;;;;;5059677;28;20387;-78
2022/08/01 07:11:47;;;;;;;2.30;1.50;;;34.40;63.70;;;;;;5052301;28;20048;-78
2022/08/01 07:15:10;;;;;;;3.80;1.40;;;33.80;64.00;;;;;;5062556;28;20051;-78
2022/08/01 07:18:33;;;;;;;7.43;2.33;;;34.30;63.30;;;;;;5065856;28;20047;-78
2022/08/01 07:21:38;;;;;;;3.85;1.38;;;34.10;62.90;;;;;;5069454;28;20055;-78
2022/08/01 07:25:01;;;;;;;4.57;1.63;;;35.00;63.00;;;;;;5062848;28;20052;-78
2022/08/01 07:28:05;;;;;;;5.18;1.40;;;35.10;62.50;;;;;;5069987;28;20044;-79
2022/08/01 07:31:09;;;;;;;3.50;1.17;;;35.10;61.90;;;;;;5069738;28;20048;-78
2022/08/01 07:34:15;;;;;;;4.15;1.27;;;35.60;61.90;;;;;;5052313;28;20383;-78
2022/08/01 07:37:37;;;;;;;4.50;1.42;;;36.70;60.90;;;;;;5069800;28;20039;-79
2022/08/01 07:41:00;;;;;;;2.40;1.23;;;37.70;59.70;;;;;;5049603;28;20396;-76
2022/08/01 07:44:04;;;;;;;4.40;1.20;;;37.90;59.20;;;;;;5049388;28;20051;-77
2022/08/01 07:47:08;;;;;;;3.60;1.17;;;38.00;58.80;;;;;;5037198;28;20352;-79
2022/08/01 07:50:12;;;;;;;2.05;1.10;;;39.10;58.00;;;;;;5049889;28;20326;-77
2022/08/01 07:53:16;;;;;;;3.42;1.33;;;38.70;56.90;;;;;;5049141;28;20044;-76
2022/08/01 08:00:40;;;;;;;4.63;1.27;;;38.60;57.20;;;;;;5054549;28;20044;-76
2022/08/01 08:03:44;;;;;;;2.45;1.40;;;39.60;56.80;;;;;;5073061;28;20051;-79
2022/08/01 08:10:30;;;;;;;5.18;1.05;;;40.50;54.80;;;;;;5069190;28;20039;-76
2022/08/01 08:13:35;;;;;;;3.17;1.10;;;40.50;55.00;;;;;;5072576;28;20044;-76
2022/08/01 08:16:39;;;;;;;3.95;0.80;;;40.40;54.80;;;;;;5072349;28;20055;-77
2022/08/01 08:19:44;;;;;;;2.45;1.10;;;41.20;53.60;;;;;;5068079;28;20087;-77
2022/08/01 08:22:48;;;;;;;1.27;0.88;;;41.40;53.10;;;;;;5067163;28;20471;-77
2022/08/01 08:29:15;;;;;;;1.38;0.90;;;40.30;52.50;;;;;;5079004;28;20040;-76
2022/08/01 08:32:20;;;;;;;3.60;0.90;;;41.70;52.70;;;;;;5067630;28;20047;-76
2022/08/01 08:35:24;;;;;;;1.63;1.10;;;43.00;51.30;;;;;;5070363;28;20391;-77
2022/08/01 08:38:47;;;;;;;4.68;0.90;;;41.00;50.80;;;;;;5065485;28;20044;-76
2022/08/01 08:41:51;;;;;;;1.83;0.93;;;39.10;52.50;;;;;;5069030;28;20044;-76
2022/08/01 08:48:18;;;;;;;1.90;0.75;;;42.20;51.10;;;;;;5065226;28;20363;-76
2022/08/01 08:51:25;;;;;;;2.55;0.90;;;42.20;49.90;;;;;;5062699;28;20044;-76
2022/08/01 08:54:32;;;;;;;4.90;0.68;;;44.50;49.40;;;;;;5064667;28;20044;-76
2022/08/01 08:58:00;;;;;;;3.70;1.10;;;45.10;48.00;;;;;;5072209;28;20044;-76
2022/08/01 09:01:07;;;;;;;1.08;0.55;;;43.40;48.70;;;;;;5066278;28;20044;-76
2022/08/01 09:04:11;;;;;;;1.20;0.70;;;45.50;48.20;;;;;;5067527;28;20048;-77
2022/08/01 09:07:15;;;;;;;1.40;0.77;;;44.20;47.40;;;;;;5069587;28;20051;-76
2022/08/01 09:10:19;;;;;;;1.17;0.80;;;43.60;47.70;;;;;;5058036;28;20052;-76
2022/08/01 09:13:24;;;;;;;1.17;0.63;;;45.90;48.20;;;;;;5044971;28;20048;-74
2022/08/01 09:16:28;;;;;;;4.13;0.57;;;43.80;46.80;;;;;;5059754;28;20048;-76
2022/08/01 09:19:43;;;;;;;3.22;0.60;;;44.80;47.00;;;;;;5059021;28;20341;-75
2022/08/01 09:22:46;;;;;;;5.15;0.70;;;46.20;46.50;;;;;;5063744;28;20097;-76
2022/08/01 09:29:33;;;;;;;1.58;0.70;;;48.80;45.20;;;;;;5071543;28;20039;-76
2022/08/01 09:32:53;;;;;;;1.45;0.80;;;47.90;44.90;;;;;;5069213;28;20039;-76
2022/08/01 09:35:57;;;;;;;1.35;0.52;;;45.80;45.80;;;;;;5066265;28;20047;-76
2022/08/01 09:39:21;;;;;;;3.42;0.60;;;46.30;45.90;;;;;;5071366;28;20039;-76
2022/08/01 09:42:26;;;;;;;1.27;0.57;;;47.70;45.30;;;;;;5051600;28;20052;-75
2022/08/01 09:45:49;;;;;;;5.55;0.77;;;46.10;45.80;;;;;;5051368;28;20044;-75
2022/08/01 09:49:04;;;;;;;3.78;0.60;;;47.40;45.70;;;;;;5051461;28;20068;-75
2022/08/01 09:52:15;;;;;;;1.25;0.77;;;48.00;45.70;;;;;;5051582;28;20036;-76
2022/08/01 09:55:39;;;;;;;0.85;0.57;;;48.60;45.10;;;;;;5064576;28;20036;-75
2022/08/01 09:58:50;;;;;;;1.88;0.70;;;49.70;44.90;;;;;;5069888;28;20502;-76
2022/08/01 10:01:56;;;;;;;1.05;0.70;;;46.80;44.60;;;;;;5070134;28;20047;-75
2022/08/01 10:05:02;;;;;;;1.92;0.70;;;47.40;45.30;;;;;;5052429;28;20052;-75
2022/08/01 10:08:06;;;;;;;1.10;0.70;;;47.60;45.50;;;;;;5062812;28;20035;-76
2022/08/01 10:11:12;;;;;;;1.48;0.60;;;48.80;44.40;;;;;;5069517;28;20056;-76
2022/08/01 10:14:19;;;;;;;0.88;0.70;;;47.80;44.60;;;;;;5070684;28;20059;-76
2022/08/01 10:20:48;;;;;;;1.02;0.65;;;44.20;45.90;;;;;;5068054;28;20043;-77
2022/08/01 10:28:17;;;;;;;1.98;0.80;;;47.10;45.10;;;;;;5069849;28;20043;-75
2022/08/01 10:31:41;;;;;;;1.80;0.65;;;49.00;44.40;;;;;;5078828;28;20059;-76
2022/08/01 10:35:05;;;;;;;1.17;0.57;;;51.00;43.80;;;;;;5059861;28;20052;-76
2022/08/01 10:38:09;;;;;;;0.95;0.52;;;52.50;43.60;;;;;;5061304;28;20039;-75
2022/08/01 10:41:34;;;;;;;1.10;0.70;;;53.40;42.80;;;;;;5080523;28;20054;-77
2022/08/01 10:44:57;;;;;;;1.23;0.70;;;49.40;43.00;;;;;;5075052;28;20051;-74
2022/08/01 10:48:14;;;;;;;1.90;0.60;;;50.20;43.40;;;;;;5068138;28;20055;-76
2022/08/01 10:51:39;;;;;;;3.88;0.60;;;47.60;43.70;;;;;;5066791;28;20383;-75
2022/08/01 10:54:44;;;;;;;5.25;0.65;;;49.90;43.50;;;;;;5064543;28;20077;-75
2022/08/01 10:57:48;;;;;;;3.88;0.60;;;51.60;43.00;;;;;;5063486;28;20044;-76
2022/08/01 11:01:14;;;;;;;1.70;0.70;;;53.20;42.00;;;;;;5069850;28;20043;-76
2022/08/01 11:07:53;;;;;;;2.85;0.57;;;54.40;41.50;;;;;;5074186;28;20039;-77
2022/08/01 11:11:01;;;;;;;1.08;0.50;;;54.30;41.30;;;;;;5075545;28;20044;-76
2022/08/01 11:14:24;;;;;;;2.30;0.65;;;53.20;40.80;;;;;;5057155;28;20052;-76
2022/08/01 11:17:47;;;;;;;0.98;0.50;;;51.50;41.20;;;;;;5062745;28;20519;-75
2022/08/01 11:20:59;;;;;;;0.95;0.70;;;48.10;40.60;;;;;;5051091;28;20056;-76
2022/08/01 11:24:03;;;;;;;2.97;0.80;;;47.80;42.30;;;;;;5053044;28;20028;-75
2022/08/01 11:31:14;;;;;;;1.20;0.60;;;47.80;43.00;;;;;;5074484;28;20039;-77
2022/08/01 11:34:18;;;;;;;2.50;0.80;;;49.70;42.60;;;;;;5079405;28;20059;-76
2022/08/01 11:41:07;;;;;;;2.35;0.80;;;51.50;42.20;;;;;;5086112;28;20047;-75
2022/08/01 11:44:51;;;;;;;2.95;0.68;;;50.80;41.60;;;;;;5075428;28;20051;-75
2022/08/01 11:47:56;;;;;;;0.82;0.40;;;51.40;42.20;;;;;;5070052;28;20119;-77
2022/08/01 11:51:19;;;;;;;0.70;0.50;;;51.80;41.20;;;;;;5054114;28;20039;-76
2022/08/01 11:54:33;;;;;;;2.28;0.68;;;52.20;41.70;;;;;;5068928;28;20501;-76
2022/08/01 11:57:37;;;;;;;4.82;0.80;;;52.20;41.50;;;;;;5073617;28;20387;-75
2022/08/01 12:00:53;;;;;;;1.95;0.60;;;51.10;40.70;;;;;;5077954;28;20067;-76
2022/08/01 12:03:58;;;;;;;1.70;0.82;;;48.80;42.60;;;;;;5072532;28;20040;-75
2022/08/01 12:07:17;;;;;;;1.23;0.70;;;49.80;42.40;;;;;;5073334;28;20043;-76
2022/08/01 12:10:40;;;;;;;1.60;0.90;;;50.50;42.40;;;;;;5064066;28;20035;-76
2022/08/01 12:13:44;;;;;;;5.18;0.85;;;51.20;41.80;;;;;;5069955;28;20463;-76
2022/08/01 12:16:53;;;;;;;0.88;0.77;;;48.40;42.30;;;;;;5073621;28;20504;-76
2022/08/01 12:19:58;;;;;;;1.83;1.00;;;46.40;43.50;;;;;;5082917;28;20489;-75
2022/08/01 12:23:07;;;;;;;3.42;0.90;;;45.00;44.00;;;;;;5077313;28;20034;-76
2022/08/01 12:26:12;;;;;;;1.25;0.98;;;44.00;44.60;;;;;;5072685;28;20056;-76
2022/08/01 12:29:49;;;;;;;2.05;0.95;;;43.30;45.40;;;;;;5053095;28;20059;-76
2022/08/01 12:33:12;;;;;;;2.78;1.00;;;44.80;44.80;;;;;;5023304;28;20056;-75
2022/08/01 12:40:09;;;;;;;3.97;2.20;;;46.70;43.90;;;;;;5056056;28;20047;-76
2022/08/01 12:43:19;;;;;;;4.47;4.07;;;45.90;43.40;;;;;;5072067;28;20044;-75
2022/08/01 12:46:42;;;;;;;4.57;3.70;;;45.80;44.00;;;;;;5071039;28;20509;-76
2022/08/01 12:50:05;;;;;;;7.20;3.67;;;46.40;43.80;;;;;;5071588;28;20047;-76
2022/08/01 12:53:28;;;;;;;2.03;1.40;;;46.00;44.00;;;;;;5053925;28;20052;-75
2022/08/01 12:56:56;;;;;;;4.35;1.40;;;46.20;44.10;;;;;;5083658;28;20588;-75
2022/08/01 13:00:23;;;;;;;2.13;1.08;;;46.00;43.90;;;;;;5092443;28;20047;-76
2022/08/01 13:03:46;;;;;;;1.80;1.10;;;46.50;43.90;;;;;;5069260;28;20051;-76
2022/08/01 13:06:54;;;;;;;8.10;2.85;;;46.20;43.70;;;;;;5065412;28;20044;-74
2022/08/01 13:10:37;;;;;;;4.25;3.85;;;45.00;43.60;;;;;;5071483;28;20044;-75
2022/08/01 13:13:47;;;;;;;5.63;3.50;;;43.30;44.60;;;;;;5051684;28;20064;-73
2022/08/01 13:20:29;;;;;;;8.57;6.43;;;42.80;45.50;;;;;;5068477;28;20032;-74
2022/08/01 13:23:32;;;;;;;8.20;6.80;;;43.10;44.80;;;;;;5051309;28;20056;-75
2022/08/01 13:26:58;;;;;;;9.77;6.05;;;42.70;46.00;;;;;;5068919;28;20055;-76
2022/08/01 13:30:12;;;;;;;6.30;4.70;;;43.00;45.30;;;;;;5071057;28;20043;-75
2022/08/01 13:33:16;;;;;;;5.22;4.15;;;43.40;45.10;;;;;;5064114;28;20038;-74
2022/08/01 13:36:39;;;;;;;4.07;3.60;;;43.20;44.70;;;;;;5071057;28;20051;-75
2022/08/01 13:39:44;;;;;;;4.05;2.63;;;41.80;45.60;;;;;;5071119;28;20048;-75
2022/08/01 13:42:49;;;;;;;5.72;3.05;;;42.40;45.40;;;;;;5070551;28;20046;-75
2022/08/01 13:46:30;;;;;;;3.30;2.58;;;42.60;45.50;;;;;;5070437;28;20043;-76
2022/08/01 13:49:35;;;;;;;5.22;2.00;;;42.50;45.80;;;;;;5070725;28;20059;-75
2022/08/01 13:52:38;;;;;;;2.60;1.90;;;42.00;45.80;;;;;;5070262;28;20035;-75
2022/08/01 13:55:42;;;;;;;2.38;1.48;;;42.10;45.50;;;;;;5069790;28;20035;-75
2022/08/01 13:58:47;;;;;;;3.55;1.88;;;42.30;45.50;;;;;;5070261;28;20047;-74
2022/08/01 14:01:51;;;;;;;5.65;2.03;;;42.40;45.20;;;;;;5068921;28;20044;-72
2022/08/01 14:04:55;;;;;;;4.93;2.08;;;42.50;45.20;;;;;;5061873;28;20047;-75
2022/08/01 14:07:59;;;;;;;6.22;2.88;;;42.20;45.30;;;;;;5070082;28;20043;-77
2022/08/01 14:11:22;;;;;;;3.92;2.40;;;42.20;45.30;;;;;;5069705;28;20039;-76
2022/08/01 14:14:26;;;;;;;2.67;2.08;;;41.20;45.80;;;;;;5069687;28;20028;-75
2022/08/01 14:17:32;;;;;;;2.00;1.52;;;40.20;46.30;;;;;;5069976;28;20059;-76
2022/08/01 14:20:37;;;;;;;2.28;1.30;;;39.70;46.40;;;;;;5067077;28;20039;-75
2022/08/01 14:27:41;;;;;;;2.33;1.50;;;39.20;46.20;;;;;;5063045;28;20048;-75
2022/08/01 14:30:45;;;;;;;3.45;1.80;;;38.90;46.70;;;;;;5070396;28;20039;-75
2022/08/01 14:33:49;;;;;;;3.17;1.77;;;39.40;47.00;;;;;;5076966;28;20050;-72
2022/08/01 14:36:54;;;;;;;2.33;1.02;;;40.00;46.60;;;;;;5082791;28;20107;-72
2022/08/01 14:40:16;;;;;;;2.65;1.25;;;40.30;46.30;;;;;;5064848;28;20052;-74
2022/08/01 14:43:20;;;;;;;3.05;1.20;;;40.40;46.30;;;;;;5053063;28;20055;-75
2022/08/01 14:46:24;;;;;;;4.72;1.27;;;40.40;46.10;;;;;;5069130;28;20035;-74
2022/08/01 14:49:28;;;;;;;4.93;1.10;;;40.50;46.00;;;;;;5069717;28;20039;-75
2022/08/01 14:56:33;;;;;;;3.42;1.10;;;40.40;46.20;;;;;;5070181;28;20047;-76
2022/08/01 14:59:37;;;;;;;1.73;1.27;;;40.30;46.10;;;;;;5050459;28;20409;-75
2022/08/01 15:02:41;;;;;;;1.45;1.00;;;40.10;45.90;;;;;;5049959;28;20048;-74
2022/08/01 15:05:46;;;;;;;2.10;1.17;;;39.70;45.80;;;;;;5050294;28;20052;-75
2022/08/01 15:08:50;;;;;;;1.83;1.10;;;39.60;46.30;;;;;;5049280;28;20048;-74
2022/08/01 15:11:54;;;;;;;3.80;1.13;;;39.40;46.10;;;;;;5049646;28;20044;-75
2022/08/01 15:14:57;;;;;;;1.80;1.00;;;39.40;46.20;;;;;;5049402;28;20087;-74
2022/08/01 15:26:13;;;;;;;1.48;1.02;;;39.60;46.00;;;;;;5049126;28;20040;-78
2022/08/01 15:29:17;;;;;;;1.77;1.20;;;39.50;46.00;;;;;;5049577;28;20040;-74
2022/08/01 15:32:22;;;;;;;3.13;1.33;;;39.30;46.40;;;;;;5049816;28;20167;-74
2022/08/01 15:35:26;;;;;;;3.72;1.25;;;38.80;46.20;;;;;;5049404;28;20310;-75
2022/08/01 15:38:30;;;;;;;4.18;1.40;;;38.20;46.60;;;;;;5049362;28;20043;-77
2022/08/01 15:41:34;;;;;;;2.17;1.13;;;38.20;46.90;;;;;;5049689;28;20407;-77
2022/08/01 15:48:20;;;;;;;1.83;1.10;;;37.60;46.90;;;;;;5049342;28;20048;-75
2022/08/01 15:51:24;;;;;;;3.03;1.40;;;37.40;47.50;;;;;;5049793;28;20048;-75
2022/08/01 17:08:18;;;;;;;4.82;1.33;;;35.30;54.00;;;;;;5033423;28;20061;-75
2022/08/01 17:11:22;;;;;;;6.05;1.50;;;35.10;53.80;;;;;;5032533;28;20056;-76
2022/08/01 17:14:45;;;;;;;2.28;1.40;;;34.90;53.90;;;;;;5031754;28;20507;-74
2022/08/01 17:17:50;;;;;;;1.83;1.20;;;34.80;54.10;;;;;;5031715;28;20033;-75
2022/08/01 17:21:31;;;;;;;4.75;1.30;;;34.60;54.20;;;;;;5032300;28;20053;-76
2022/08/01 17:24:35;;;;;;;5.03;1.50;;;34.50;54.50;;;;;;5031391;28;20396;-76
2022/08/01 17:27:39;;;;;;;5.85;1.50;;;34.40;55.40;;;;;;5031836;28;20048;-76
2022/08/01 17:30:43;;;;;;;3.15;1.15;;;34.30;54.70;;;;;;5031397;28;20048;-76
2022/08/01 17:33:47;;;;;;;3.38;1.50;;;34.30;55.00;;;;;;5031264;28;20396;-76
2022/08/01 17:36:51;;;;;;;5.50;1.38;;;34.20;55.10;;;;;;5031831;28;20495;-75
2022/08/01 17:39:55;;;;;;;2.42;1.45;;;34.00;55.00;;;;;;5031093;28;20052;-76
2022/08/01 17:42:59;;;;;;;2.35;1.50;;;33.90;55.00;;;;;;5031548;28;20036;-76
2022/08/01 17:46:40;;;;;;;1.85;1.30;;;33.80;55.30;;;;;;5031208;28;20061;-76
2022/08/01 17:49:44;;;;;;;4.57;1.40;;;33.70;55.40;;;;;;5031046;28;20044;-76
2022/08/01 17:52:48;;;;;;;1.92;1.27;;;33.60;55.80;;;;;;5031566;28;20056;-77
2022/08/01 17:56:11;;;;;;;3.55;1.17;;;33.40;55.50;;;;;;5030750;28;20494;-76
2022/08/01 17:59:14;;;;;;;3.00;1.50;;;33.30;55.80;;;;;;5031384;28;20057;-76
2022/08/01 18:02:19;;;;;;;3.47;1.48;;;33.20;55.90;;;;;;5031413;28;20048;-77
2022/08/01 18:05:42;;;;;;;2.67;1.33;;;33.00;56.10;;;;;;5030357;28;20041;-76
2022/08/01 18:09:08;;;;;;;5.82;1.30;;;32.90;56.30;;;;;;5030692;28;20048;-76
2022/08/01 18:12:14;;;;;;;2.72;1.60;;;32.70;56.60;;;;;;5031240;28;20415;-76
2022/08/01 18:18:59;;;;;;;6.30;1.67;;;32.40;57.10;;;;;;5030993;28;20052;-77
2022/08/01 18:25:46;;;;;;;5.75;1.60;;;32.10;57.20;;;;;;5030319;28;20044;-76
2022/08/01 18:32:12;;;;;;;4.60;1.35;;;31.70;57.90;;;;;;5030739;28;20372;-76
2022/08/01 18:35:16;;;;;;;3.78;1.58;;;31.50;58.00;;;;;;5029904;28;20044;-76
2022/08/01 18:38:20;;;;;;;2.00;1.60;;;31.30;58.10;;;;;;5030814;28;20056;-76
2022/08/01 18:45:07;;;;;;;3.72;1.50;;;31.00;58.30;;;;;;5030255;28;20392;-77
2022/08/01 18:48:30;;;;;;;2.97;1.35;;;30.80;58.50;;;;;;5030528;28;20518;-77
2022/08/01 18:51:34;;;;;;;7.43;1.40;;;30.70;58.70;;;;;;5030492;28;20040;-76
2022/08/01 18:54:38;;;;;;;2.42;1.40;;;30.50;58.90;;;;;;5029325;28;20060;-76
2022/08/01 18:57:42;;;;;;;2.85;1.58;;;30.40;59.10;;;;;;5030012;28;20040;-76
2022/08/01 19:00:46;;;;;;;4.85;1.45;;;30.30;59.30;;;;;;5017692;28;20050;-76
2022/08/01 19:03:50;;;;;;;2.17;1.33;;;30.20;59.50;;;;;;5029671;28;20039;-76
2022/08/01 19:10:38;;;;;;;2.67;1.30;;;30.00;60.00;;;;;;5030103;28;20037;-76
2022/08/01 19:13:41;;;;;;;2.53;1.83;;;29.90;60.30;;;;;;5029575;28;20382;-76
2022/08/01 19:16:46;;;;;;;2.85;1.77;;;29.80;60.20;;;;;;5029988;28;20507;-76
2022/08/01 19:19:54;;;;;;;2.58;1.40;;;29.80;60.50;;;;;;5029865;28;20223;-76
2022/08/01 19:22:58;;;;;;;2.38;1.45;;;29.70;60.70;;;;;;5030020;28;20511;-76
2022/08/01 19:26:04;;;;;;;7.30;1.70;;;29.70;60.70;;;;;;5029491;28;20396;-75
2022/08/01 19:29:17;;;;;;;3.97;1.63;;;29.60;60.90;;;;;;5029623;28;20491;-76
2022/08/01 19:32:42;;;;;;;4.15;1.58;;;29.60;61.10;;;;;;5031638;28;20056;-75
2022/08/01 19:35:51;;;;;;;3.03;1.60;;;29.50;61.20;;;;;;5029576;28;20056;-75
2022/08/01 19:39:15;;;;;;;6.18;2.03;;;29.40;61.30;;;;;;5028997;28;20118;-76
2022/08/01 19:42:19;;;;;;;3.50;1.65;;;29.40;61.10;;;;;;5029749;28;20052;-76
2022/08/01 19:45:28;;;;;;;4.30;1.88;;;29.30;61.20;;;;;;5029289;28;20049;-76
2022/08/01 19:48:51;;;;;;;5.78;2.03;;;29.30;61.40;;;;;;5029446;28;20048;-76
2022/08/01 19:52:02;;;;;;;4.65;1.60;;;29.30;61.60;;;;;;5017573;28;20044;-76
2022/08/01 19:55:10;;;;;;;2.47;1.70;;;29.20;61.70;;;;;;5030337;28;20388;-75
2022/08/01 19:58:32;;;;;;;4.32;1.80;;;29.10;61.50;;;;;;5033661;28;20044;-74
2022/08/01 20:01:57;;;;;;;9.45;2.05;;;29.00;61.90;;;;;;5033415;28;20519;-75
2022/08/01 20:05:20;;;;;;;4.82;1.75;;;28.80;62.10;;;;;;5032554;28;20060;-74
2022/08/01 20:08:25;;;;;;;3.58;1.55;;;28.70;62.50;;;;;;5033843;28;20048;-74
2022/08/01 20:11:29;;;;;;;3.50;1.40;;;28.60;62.60;;;;;;5033454;28;20052;-74